Terminal Aerodrome Forecast
Issued by NWS

Home | Current Version | Previous Version | Text Only | Print | Product List | Glossary On
Versions: 1 2 3 4 5 6 7 8 9 10 11 12
000
FTUS42 TJSJ 190520
TAFJBQ
TAF
TJBQ 190520Z 1906/2006 VRB05KT P6SM VCSH SCT030 BKN070
     FM191200 01007KT P6SM VCSH SCT030 SCT100
     FM192300 VRB04KT P6SM VCTS SCT030CB BKN080
      AMD NOT SKED TIL 191100=

USA.gov is the U.S. government's official web portal to all federal, state and local government web resources and services.